temp
2022/01/20 17:20:01 UKKM 201500Z 19005MPS 4900 -SN OVC023 00/M02 Q1004 TEMPO 2100 -SHSN BKN012CB
2022/01/20 18:20:01 UKKM 201600Z AUTO 18005MPS 3800 -SN OVC005/// M00/M02 Q1004
2022/01/20 19:20:01 UKKM 201700Z AUTO 19005MPS 9999 BKN011/// 00/M01 Q1004
2022/01/20 20:20:01 UKKM 201800Z AUTO 20005MPS 9999 NSC 00/M02 Q1004
2022/01/20 21:20:01 UKKM 201900Z AUTO 19004MPS 9999 // FEW016/// 00/M02 Q1004
2022/01/20 22:20:01 UKKM 202000Z AUTO 19004MPS 9999 // NSC 00/M02 Q1003
2022/01/20 23:20:01 UKKM 202100Z AUTO 19004MPS 9999 // NSC M00/M03 Q1003
2022/01/21 00:20:01 UKKM 202200Z AUTO 24007MPS 9999 // ///024/// M00/M05 Q1003
2022/01/21 01:20:01 UKKM 202300Z AUTO 25005MPS 9999 // ///027/// M01/M06 Q1003
2022/01/21 02:20:01 UKKM 210000Z AUTO 24006MPS 9999 // NSC M02/M06 Q1003
2022/01/21 03:20:01 UKKM 210100Z AUTO 24007MPS 9999 // NSC M02/M07 Q1003
2022/01/21 04:20:01 UKKM 210200Z AUTO 21005MPS 9999 // NCD M03/M08 Q1003
2022/01/21 05:20:01 UKKM 210300Z AUTO 23005MPS 9999 // ///035/// M03/M08 Q1002
2022/01/21 06:20:01 UKKM 210400Z AUTO 21006MPS 9999 -SN SCT039/// M03/M08 Q1002
2022/01/21 07:20:01 UKKM 210500Z AUTO 22006MPS 5000 -SN OVC014/// M03/M06 Q1002
2022/01/21 08:20:01 UKKM 210600Z 23007MPS 9000 -SHSN SCT033CB M03/M06 Q1002
2022/01/21 09:20:01 UKKM 210716Z 23007MPS 210V270 5000 -SHSN BLSN SCT016 BKN031CB OVC046 M02/M06 Q1002 TEMPO 26012G18MPS 0300 +SHSN BLSN BKN003 BKN015CB
2022/01/21 10:20:01 UKKM 210812Z 24008MPS 190V270 6000 -SHSN DRSN FEW015 SCT025CB OVC045 M02/M06 Q1002 TEMPO 26012G18MPS 2100 -SHSN BKN007 BKN015CB
2022/01/21 11:20:01 UKKM 210900Z 24008MPS 9999 DRSN OVC023 M02/M06 Q1002 TEMPO 26012G18MPS 2100 -SHSN BKN007 BKN015CB
2022/01/21 12:20:01 UKKM 211008Z 24008G13MPS 4900 -SHSN DRSN FEW016 SCT023CB OVC040 M02/M06 Q1001 TEMPO 26012G18MPS 2100 -SHSN BKN007 BKN015CB
2022/01/21 13:20:01 UKKM 211108Z 24008G13MPS 9000 -SN DRSN OVC020 M02/M06 Q1001 TEMPO 26012G18MPS 2100 -SHSN BKN007 BKN015CB
2022/01/21 14:20:01 UKKM 211200Z 24008MPS 9000 -SN DRSN SCT018 OVC032 M02/M06 Q1001 TEMPO 26012G18MPS 2100 -SHSN BKN007 BKN015CB
2022/01/21 15:20:01 UKKM 211300Z 24009MPS 7000 -SHSN DRSN SCT018 SCT029CB M01/M05 Q1001 TEMPO 26012G18MPS 1000 SHSN BLSN BKN003 BKN015CB
2022/01/21 16:20:01 UKKM 211404Z 24007MPS 4800 -SHSN DRSN FEW013 SCT026CB M02/M05 Q1001 TEMPO 26012G18MPS 1000 SHSN BLSN BKN007 BKN015CB
2022/01/21 16:48:37 UKKM 211430Z 24007MPS 6000 -SHSN DRSN FEW013 SCT026CB M02/M05 Q1001 TEMPO 26012G18MPS 2100 -SHSN BKN007 BKN015CB


*METAR
*Decoder
*In graph

Рекомендую хостинг от vultr.com
Лучший выход из российского кризиса - Шереметьево 2.
2022-01-21_16-48-37 / 54.210.223.150 / 0.441